TimeCST,TemperatureF,Dew PointF,Humidity,Sea Level PressureIn,VisibilityMPH,Wind Direction,Wind SpeedMPH,Gust SpeedMPH,PrecipitationIn,Events,Conditions,WindDirDegrees,DateUTC
12:15 AM,24.1,23.0,96,30.38,5.0,Calm,Calm,-,N/A,,Clear,0,2012-11-16 06:15:00
12:35 AM,24.3,23.2,96,30.39,5.0,Calm,Calm,-,N/A,,Clear,0,2012-11-16 06:35:00
12:55 AM,23.9,22.8,96,30.39,4.0,Calm,Calm,-,N/A,,Clear,0,2012-11-16 06:55:00
1:15 AM,23.4,22.5,96,30.39,4.0,Calm,Calm,-,N/A,,Clear,0,2012-11-16 07:15:00
1:35 AM,23.7,22.8,96,30.39,4.0,ESE,3.5,-,N/A,,Clear,120,2012-11-16 07:35:00
1:55 AM,23.7,22.6,96,30.39,4.0,ESE,3.5,-,N/A,,Clear,110,2012-11-16 07:55:00
2:15 AM,23.7,22.6,96,30.39,4.0,ESE,3.5,-,N/A,,Clear,110,2012-11-16 08:15:00
2:35 AM,23.0,21.9,96,30.39,4.0,Calm,Calm,-,N/A,,Clear,0,2012-11-16 08:35:00
2:55 AM,23.2,22.1,96,30.39,4.0,Calm,Calm,-,N/A,,Clear,0,2012-11-16 08:55:00
3:15 AM,23.0,21.7,95,30.39,4.0,Calm,Calm,-,N/A,,Clear,0,2012-11-16 09:15:00
3:35 AM,22.5,21.4,96,30.39,4.0,SE,3.5,-,N/A,,Clear,130,2012-11-16 09:35:00
3:55 AM,21.9,20.8,96,30.40,5.0,Calm,Calm,-,N/A,,Clear,0,2012-11-16 09:55:00
4:15 AM,21.6,20.5,96,30.40,3.0,Calm,Calm,-,N/A,,Clear,0,2012-11-16 10:15:00
4:35 AM,21.6,20.7,96,30.41,4.0,Calm,Calm,-,N/A,,Clear,0,2012-11-16 10:35:00
4:55 AM,21.4,20.1,95,30.41,5.0,Calm,Calm,-,N/A,,Clear,0,2012-11-16 10:55:00
5:15 AM,20.8,19.6,95,30.41,3.0,Calm,Calm,-,N/A,,Clear,0,2012-11-16 11:15:00
5:35 AM,21.4,20.5,96,30.41,4.0,Calm,Calm,-,N/A,,Clear,0,2012-11-16 11:35:00
5:55 AM,21.6,20.7,96,30.41,3.0,Calm,Calm,-,N/A,,Clear,0,2012-11-16 11:55:00
6:15 AM,21.9,20.7,95,30.42,4.0,Calm,Calm,-,N/A,,Clear,0,2012-11-16 12:15:00
6:35 AM,21.6,20.1,94,30.42,4.0,Calm,Calm,-,N/A,,Clear,0,2012-11-16 12:35:00
6:55 AM,21.2,19.9,95,30.43,3.0,Calm,Calm,-,N/A,,Clear,0,2012-11-16 12:55:00
7:15 AM,21.2,20.3,96,30.43,2.5,Calm,Calm,-,N/A,,Clear,0,2012-11-16 13:15:00
7:35 AM,21.9,21.0,96,30.45,4.0,Calm,Calm,-,N/A,,Clear,0,2012-11-16 13:35:00
7:55 AM,25.3,24.1,95,30.45,3.0,Calm,Calm,-,N/A,,Clear,0,2012-11-16 13:55:00
8:15 AM,27.7,26.1,94,30.46,2.5,Calm,Calm,-,N/A,,Clear,0,2012-11-16 14:15:00
8:35 AM,30.2,28.4,93,30.46,2.5,Calm,Calm,-,N/A,,Clear,0,2012-11-16 14:35:00
9:15 AM,33.8,31.5,91,30.46,3.0,Calm,Calm,-,N/A,,Clear,0,2012-11-16 15:15:00
9:35 AM,36.3,32.2,85,30.47,4.0,Calm,Calm,-,N/A,,Clear,0,2012-11-16 15:35:00
9:55 AM,38.8,33.1,80,30.47,5.0,Calm,Calm,-,N/A,,Clear,0,2012-11-16 15:55:00
10:15 AM,41.2,33.4,74,30.48,5.0,Calm,Calm,-,N/A,,Clear,0,2012-11-16 16:15:00
10:35 AM,42.8,32.5,67,30.48,7.0,Calm,Calm,-,N/A,,Clear,0,2012-11-16 16:35:00
10:55 AM,44.4,30.9,59,30.47,10.0,Calm,Calm,-,N/A,,Clear,0,2012-11-16 16:55:00
11:15 AM,46.2,28.9,51,30.46,10.0,Calm,Calm,-,N/A,,Clear,0,2012-11-16 17:15:00
11:35 AM,47.5,29.3,49,30.46,10.0,Calm,Calm,-,N/A,,Clear,0,2012-11-16 17:35:00
11:55 AM,48.4,28.9,47,30.45,10.0,Calm,Calm,-,N/A,,Clear,0,2012-11-16 17:55:00
12:15 PM,49.3,27.5,43,30.45,10.0,Calm,Calm,-,N/A,,Clear,0,2012-11-16 18:15:00
12:35 PM,49.8,27.7,42,30.45,10.0,Calm,Calm,-,N/A,,Clear,0,2012-11-16 18:35:00
12:55 PM,50.7,28.4,42,30.44,10.0,Calm,Calm,-,N/A,,Clear,0,2012-11-16 18:55:00
1:15 PM,50.9,28.4,42,30.44,10.0,Calm,Calm,-,N/A,,Clear,0,2012-11-16 19:15:00
1:35 PM,51.3,28.0,41,30.43,10.0,South,3.5,-,N/A,,Clear,190,2012-11-16 19:35:00
1:55 PM,52.0,27.5,39,30.43,10.0,Calm,Calm,-,N/A,,Clear,0,2012-11-16 19:55:00
2:15 PM,51.8,26.2,37,30.43,10.0,Calm,Calm,-,N/A,,Clear,0,2012-11-16 20:15:00
2:35 PM,52.2,26.4,37,30.44,10.0,South,3.5,-,N/A,,Clear,190,2012-11-16 20:35:00
2:55 PM,51.8,25.9,37,30.45,10.0,Calm,Calm,-,N/A,,Clear,0,2012-11-16 20:55:00
3:15 PM,51.8,25.2,36,30.45,10.0,Calm,Calm,-,N/A,,Clear,0,2012-11-16 21:15:00
3:35 PM,51.6,26.2,37,30.45,10.0,Calm,Calm,-,N/A,,Clear,0,2012-11-16 21:35:00
3:55 PM,51.3,25.9,37,30.45,7.0,Calm,Calm,-,N/A,,Clear,0,2012-11-16 21:55:00
4:15 PM,49.8,25.3,39,30.46,10.0,Calm,Calm,-,N/A,,Clear,0,2012-11-16 22:15:00
4:35 PM,48.4,25.9,42,30.46,10.0,Calm,Calm,-,N/A,,Clear,0,2012-11-16 22:35:00
5:15 PM,42.8,28.6,57,30.46,10.0,North,3.5,-,N/A,,Clear,10,2012-11-16 23:15:00
5:35 PM,41.7,28.2,59,30.47,10.0,Calm,Calm,-,N/A,,Clear,0,2012-11-16 23:35:00
5:55 PM,37.6,28.0,68,30.47,10.0,Calm,Calm,-,N/A,,Clear,0,2012-11-16 23:55:00
6:15 PM,36.9,27.7,69,30.47,10.0,ESE,3.5,-,N/A,,Clear,110,2012-11-17 00:15:00
6:35 PM,35.2,27.3,73,30.47,10.0,SE,3.5,-,N/A,,Clear,140,2012-11-17 00:35:00
6:55 PM,34.5,27.3,75,30.46,10.0,SE,3.5,-,N/A,,Clear,140,2012-11-17 00:55:00
7:15 PM,33.6,27.3,78,30.46,7.0,SE,3.5,-,N/A,,Clear,130,2012-11-17 01:15:00
7:35 PM,32.5,27.3,81,30.47,10.0,Calm,Calm,-,N/A,,Clear,0,2012-11-17 01:35:00
7:55 PM,31.8,27.9,85,30.47,10.0,Calm,Calm,-,N/A,,Clear,0,2012-11-17 01:55:00
8:15 PM,32.0,27.9,85,30.47,7.0,Calm,Calm,-,N/A,,Clear,0,2012-11-17 02:15:00
8:35 PM,31.3,27.5,86,30.47,7.0,Calm,Calm,-,N/A,,Clear,0,2012-11-17 02:35:00
8:55 PM,30.6,27.3,88,30.48,7.0,Calm,Calm,-,N/A,,Clear,0,2012-11-17 02:55:00
9:15 PM,30.2,27.3,89,30.48,7.0,Calm,Calm,-,N/A,,Clear,0,2012-11-17 03:15:00
9:35 PM,29.8,27.0,89,30.48,7.0,Calm,Calm,-,N/A,,Clear,0,2012-11-17 03:35:00
9:55 PM,28.9,26.2,90,30.48,7.0,Calm,Calm,-,N/A,,Clear,0,2012-11-17 03:55:00
10:15 PM,28.6,25.9,90,30.48,7.0,Calm,Calm,-,N/A,,Clear,0,2012-11-17 04:15:00
10:35 PM,28.6,26.2,91,30.48,7.0,Calm,Calm,-,N/A,,Clear,0,2012-11-17 04:35:00
10:55 PM,28.2,25.5,90,30.48,7.0,Calm,Calm,-,N/A,,Clear,0,2012-11-17 04:55:00
11:15 PM,27.9,25.5,91,30.48,7.0,Calm,Calm,-,N/A,,Clear,0,2012-11-17 05:15:00
11:35 PM,27.5,25.2,91,30.48,5.0,Calm,Calm,-,N/A,,Clear,0,2012-11-17 05:35:00
11:55 PM,27.1,24.8,91,30.48,7.0,ESE,3.5,-,N/A,,Clear,120,2012-11-17 05:55:00